x

North Equatorial Two - 890 Nm East Of Martinique (41041) Wave Buoy

5:50pm - Mon 22nd Dec 2014 All times are UTC.

  • Sig Wave height 6.2ft
  • Swell Direction
  • Peak Period 8s
  • Average Period 6s
  • Wind
    16mph, 18mph gusts
  • Sea Temp 80°f
  • Air Temp 79°f
  • Sea Pressure 1013.7mb

More Historic Weather Station data

Upgrade to MSW Pro to gain access to the past 30 days of data for over 8000 Wavebouys and Weather Stations around the globe.

Join Pro

Comparision Forecast

View Surf forecast
   
Mon 12/22 5:50pm 6ft 8s 6s 16 18 mph 1013.7mb 80f 79f
4:50pm 6ft 8s 6s 16 18 mph 1014.3mb 80f 79f
3:50pm 6ft 8s 6s 18 20 mph 1015.1mb 80f 79f
2:50pm 6ft 8s 6s 16 20 mph 1015.9mb 80f 79f
1:50pm 6ft 8s 6s 16 18 mph 1016.7mb 80f 79f
12:50pm 6ft 7s 6s 18 22 mph 1016.8mb 80f 79f
11:50am 6ft 7s 6s 16 18 mph 1016.7mb 80f 79f
10:50am 6ft 8s 6s 13 16 mph 1016.2mb 80f 79f
9:50am 6ft 7s 6s 18 20 mph 1015.5mb 80f 78f
8:50am 6.5ft 8s 6s 16 20 mph 1015mb 80f 78f
7:50am 6.5ft 8s 6s 18 22 mph 1014.7mb 80f 78f
6:50am 6.5ft 7s 6s 20 22 mph 1014.5mb 80f 78f
5:50am 6.5ft 8s 6s 18 22 mph 1014.9mb 80f 78f
4:50am 6ft 8s 6s 18 22 mph 1015.6mb 80f 79f
3:50am 6ft 8s 6s 16 18 mph 1016.5mb 80f 79f
2:50am 6ft 7s 6s 18 20 mph 1016.8mb 80f 79f
1:50am 6ft 8s 6s 18 20 mph 1017mb 80f 79f
12:50am 6ft 8s 6s 18 20 mph 1017mb 80f 79f
Sun 12/21 11:50pm 6ft 8s 6s 20 22 mph 1016.7mb 80f 79f
10:50pm 6ft 8s 6s 18 22 mph 1015.9mb 80f 79f
9:50pm 6ft 7s 6s 18 22 mph 1015.3mb 80f 79f
8:50pm 6.5ft 8s 6s 20 22 mph 1014.6mb 80f 79f
7:50pm 6.5ft 9s 6s 18 20 mph 1014.4mb 80f 79f
6:50pm 6.5ft 8s 6s 18 20 mph 1014mb 80f 79f
4:50pm 7ft 8s 6s 18 20 mph 1014.7mb 80f 79f
3:50pm 6.5ft 8s 6s 18 22 mph 1015.5mb 80f 79f
2:50pm 6.5ft 10s 6s 18 20 mph 1016.5mb 80f 79f
1:50pm 6.5ft 8s 6s 20 22 mph 1016.9mb 80f 79f
12:50pm 6ft 8s 6s 20 22 mph 1016.8mb 80f 79f
11:50am 6.5ft 9s 6s 20 25 mph 1016.5mb 80f 80f
10:50am 6ft 9s 6s 20 25 mph 1015.9mb 80f 79f
9:50am 6ft 8s 6s 20 22 mph 1015.4mb 80f 79f
8:50am 6.5ft 8s 6s 18 22 mph 1015mb 80f 79f
7:50am 6.5ft 9s 6s 16 18 mph 1014.8mb 80f 79f
6:50am 6ft 7s 6s 16 20 mph 1014.8mb 80f 79f
5:50am 6ft 9s 6s 18 20 mph 1014.8mb 80f 79f
4:50am 7ft 11s 6s 18 22 mph 1015.4mb 80f 79f
3:50am 7ft 10s 6s 18 22 mph 1016mb 80f 79f
2:50am 6.5ft 11s 6s 18 20 mph 1016.4mb 80f 79f
1:50am 6ft 11s 6s 18 20 mph 1016.6mb 80f 79f
12:50am 6ft 9s 6s 18 20 mph 1016.8mb 80f 79f
Sat 12/20 11:50pm 6ft 11s 6s 18 20 mph 1016.5mb 80f 80f
10:50pm 6ft 8s 6s 16 18 mph 1016mb 80f 80f
9:50pm 6.5ft 8s 6s 16 20 mph 1015.2mb 80f 80f
8:50pm 6ft 11s 6s 18 20 mph 1014.4mb 80f 79f
7:50pm 6ft 9s 6s 18 20 mph 1014mb 80f 79f
6:50pm 6ft 9s 6s 16 18 mph 1013.9mb 80f 80f
5:50pm 6.5ft 10s 6s 16 20 mph 1014mb 80f 80f
4:50pm 6ft 9s 6s 16 18 mph 1014.5mb 80f 79f
3:50pm 6.5ft 9s 6s 16 18 mph 1015.3mb 80f 80f
2:50pm 6ft 8s 6s 16 20 mph 1016mb 80f 79f
1:50pm 6ft 10s 6s 18 20 mph 1016.4mb 80f 80f
12:50pm 6.5ft 10s 6s 18 22 mph 1016.7mb 80f 80f
11:50am 6.5ft 9s 6s 20 22 mph 1016.3mb 80f 79f
10:50am 6.5ft 10s 7s 18 20 mph 1016mb 80f 79f
9:50am 6ft 9s 6s 16 20 mph 1015mb 80f 79f
8:50am 7ft 10s 7s 16 20 mph 1014.4mb 80f 79f
7:50am 6ft 8s 6s 18 20 mph 1013.8mb 80f 79f
6:50am 5.5ft 10s 7s 16 18 mph 1013.6mb 80f 79f
5:50am 6ft 8s 7s 13 18 mph 1013.9mb 80f 79f
4:50am 6ft 9s 7s 16 18 mph 1014.5mb 80f 79f
3:50am 5.5ft 10s 7s 13 16 mph 1015.1mb 80f 79f
2:50am 6ft 10s 7s 13 16 mph 1015.4mb 80f 79f
1:50am 5.5ft 9s 7s 13 16 mph 1015.7mb 80f 79f
12:50am 5.5ft 9s 7s 13 16 mph 1015.9mb 80f 79f
Fri 12/19 11:50pm 5.5ft 9s 7s 11 13 mph 1015.8mb 80f 79f
10:50pm 6ft 10s 7s 11 16 mph 1015.2mb 80f 79f
9:50pm 5.5ft 9s 7s 11 13 mph 1014.7mb 80f 79f
8:50pm 5.5ft 10s 7s 11 13 mph 1014mb 80f 79f
7:50pm 5.5ft 11s 7s 11 13 mph 1013.3mb 80f 79f
6:50pm 5.5ft 11s 7s 11 13 mph 1013.1mb 80f 79f
5:50pm 5.5ft 10s 7s 13 16 mph 1013mb 80f 79f
4:50pm 6ft 10s 7s 13
mph
1013.4mb 80f 80f
3:50pm 6ft 10s 7s 13 16 mph 1014mb 80f 79f
2:50pm 6ft 10s 7s 13 16 mph 1014.9mb 80f 79f
1:50pm 6ft 9s 7s 11 16 mph 1015.1mb 80f 79f
12:50pm 5.5ft 10s 7s 13 16 mph 1015.2mb 80f 79f
11:50am 5ft 11s 7s 13 16 mph 1014.8mb 80f 79f
10:50am 6ft 10s 8s 11 13 mph 1014.3mb 80f 79f
9:50am 5ft 9s 7s 11 13 mph 1013.7mb 80f 78f
8:50am 6ft 10s 8s 11 13 mph 1013.2mb 80f 78f
7:50am 5.5ft 9s 7s 11 16 mph 1012.8mb 80f 78f
6:50am 6ft 11s 8s 11 13 mph 1012.5mb 80f 78f
5:50am 6ft 10s 8s 11 13 mph 1012.8mb 80f 78f
4:50am 6ft 9s 7s 11 13 mph 1013.6mb 80f 78f
3:50am 5.5ft 9s 7s 9 11 mph 1014.3mb 80f 78f
2:50am 6ft 10s 7s 9 11 mph 1014.7mb 80f 78f
1:50am 5.5ft 9s 7s 9 11 mph 1015.2mb 80f 78f
12:50am 5.5ft 9s 7s 9 11 mph 1015.5mb 80f 79f
Thu 12/18 11:50pm 5ft 8s 7s 7 9 mph 1015.3mb 80f 79f
10:50pm 6ft 10s 8s 7
mph
1014.8mb 80f 79f
9:50pm 6ft 9s 7s 4 7 mph 1014.1mb 80f 78f
8:50pm 6ft 10s 7s 7 9 mph 1013.5mb 81f 78f
7:50pm 6ft 10s 7s 4 7 mph 1013.1mb 81f 78f
6:50pm 6ft 10s 7s 4 7 mph 1013mb 81f 79f